sensor_id;sensor_type;location;lat;lon;timestamp;pressure;altitude;pressure_sealevel;temperature;humidity
78615;BME280;67937;52.488;20.952;2023-05-10T00:02:14;101312.50;;;8.92;50.79
78615;BME280;67937;52.488;20.952;2023-05-10T00:04:42;101310.77;;;8.85;50.93
78615;BME280;67937;52.488;20.952;2023-05-10T00:07:10;101305.42;;;8.80;51.10
78615;BME280;67937;52.488;20.952;2023-05-10T00:09:38;101303.67;;;8.74;51.02
78615;BME280;67937;52.488;20.952;2023-05-10T00:12:06;101308.15;;;8.73;51.18
78615;BME280;67937;52.488;20.952;2023-05-10T00:14:35;101305.40;;;8.71;51.24
78615;BME280;67937;52.488;20.952;2023-05-10T00:17:03;101303.84;;;8.68;51.21
78615;BME280;67937;52.488;20.952;2023-05-10T00:19:31;101299.59;;;8.65;51.25
78615;BME280;67937;52.488;20.952;2023-05-10T00:21:59;101295.04;;;8.65;51.32
78615;BME280;67937;52.488;20.952;2023-05-10T00:24:28;101294.78;;;8.60;51.34
78615;BME280;67937;52.488;20.952;2023-05-10T00:26:56;101290.76;;;8.60;51.61
78615;BME280;67937;52.488;20.952;2023-05-10T00:29:24;101293.11;;;8.59;51.64
78615;BME280;67937;52.488;20.952;2023-05-10T00:31:52;101286.91;;;8.53;51.77
78615;BME280;67937;52.488;20.952;2023-05-10T00:34:20;101289.71;;;8.50;51.89
78615;BME280;67937;52.488;20.952;2023-05-10T00:36:48;101287.98;;;8.43;51.85
78615;BME280;67937;52.488;20.952;2023-05-10T00:39:16;101285.12;;;8.41;51.96
78615;BME280;67937;52.488;20.952;2023-05-10T00:41:44;101284.27;;;8.37;51.85
78615;BME280;67937;52.488;20.952;2023-05-10T00:44:12;101283.17;;;8.35;51.97
78615;BME280;67937;52.488;20.952;2023-05-10T00:46:41;101282.81;;;8.32;52.03
78615;BME280;67937;52.488;20.952;2023-05-10T00:49:09;101280.36;;;8.29;52.09
78615;BME280;67937;52.488;20.952;2023-05-10T00:51:37;101282.77;;;8.26;52.13
78615;BME280;67937;52.488;20.952;2023-05-10T00:54:05;101279.80;;;8.23;52.26
78615;BME280;67937;52.488;20.952;2023-05-10T00:56:33;101281.95;;;8.21;52.24
78615;BME280;67937;52.488;20.952;2023-05-10T00:59:01;101283.48;;;8.16;52.22
78615;BME280;67937;52.488;20.952;2023-05-10T01:01:30;101283.89;;;8.19;52.20
78615;BME280;67937;52.488;20.952;2023-05-10T01:03:58;101284.80;;;8.18;52.23
78615;BME280;67937;52.488;20.952;2023-05-10T01:06:27;101281.85;;;8.14;52.21
78615;BME280;67937;52.488;20.952;2023-05-10T01:08:55;101281.11;;;8.12;52.21
78615;BME280;67937;52.488;20.952;2023-05-10T01:11:24;101280.42;;;8.11;52.34
78615;BME280;67937;52.488;20.952;2023-05-10T01:13:56;101280.90;;;8.09;52.39
78615;BME280;67937;52.488;20.952;2023-05-10T01:16:26;101278.23;;;8.06;52.36
78615;BME280;67937;52.488;20.952;2023-05-10T01:18:54;101273.42;;;8.04;52.47
78615;BME280;67937;52.488;20.952;2023-05-10T01:27:30;101272.36;;;7.98;52.24
78615;BME280;67937;52.488;20.952;2023-05-10T01:38:31;101266.26;;;7.84;52.71
78615;BME280;67937;52.488;20.952;2023-05-10T01:46:40;101263.39;;;7.68;52.76
78615;BME280;67937;52.488;20.952;2023-05-10T01:49:14;101260.10;;;7.67;52.91
78615;BME280;67937;52.488;20.952;2023-05-10T01:51:50;101260.29;;;7.64;53.03
78615;BME280;67937;52.488;20.952;2023-05-10T01:54:21;101255.02;;;7.63;53.14
78615;BME280;67937;52.488;20.952;2023-05-10T01:56:55;101254.54;;;7.59;53.08
78615;BME280;67937;52.488;20.952;2023-05-10T01:59:30;101253.50;;;7.56;53.20
78615;BME280;67937;52.488;20.952;2023-05-10T02:02:04;101250.79;;;7.54;53.27
78615;BME280;67937;52.488;20.952;2023-05-10T02:04:35;101252.34;;;7.51;53.31
78615;BME280;67937;52.488;20.952;2023-05-10T02:07:06;101251.39;;;7.46;53.51
78615;BME280;67937;52.488;20.952;2023-05-10T02:09:34;101252.49;;;7.42;53.56
78615;BME280;67937;52.488;20.952;2023-05-10T02:12:05;101252.89;;;7.40;53.67
78615;BME280;67937;52.488;20.952;2023-05-10T02:14:36;101258.95;;;7.35;53.65
78615;BME280;67937;52.488;20.952;2023-05-10T02:17:05;101256.65;;;7.29;53.73
78615;BME280;67937;52.488;20.952;2023-05-10T02:19:39;101252.25;;;7.22;53.92
78615;BME280;67937;52.488;20.952;2023-05-10T02:22:09;101250.73;;;7.14;53.97
78615;BME280;67937;52.488;20.952;2023-05-10T02:24:38;101252.44;;;7.12;54.07
78615;BME280;67937;52.488;20.952;2023-05-10T02:27:08;101248.25;;;7.05;54.05
78615;BME280;67937;52.488;20.952;2023-05-10T02:29:38;101250.04;;;7.01;54.25
78615;BME280;67937;52.488;20.952;2023-05-10T02:32:07;101249.63;;;6.92;54.44
78615;BME280;67937;52.488;20.952;2023-05-10T02:34:38;101245.23;;;6.81;54.81
78615;BME280;67937;52.488;20.952;2023-05-10T02:37:07;101243.70;;;6.73;54.81
78615;BME280;67937;52.488;20.952;2023-05-10T02:39:36;101248.81;;;6.65;55.04
78615;BME280;67937;52.488;20.952;2023-05-10T02:42:07;101248.84;;;6.58;55.22
78615;BME280;67937;52.488;20.952;2023-05-10T02:44:36;101250.94;;;6.47;55.47
78615;BME280;67937;52.488;20.952;2023-05-10T02:47:04;101248.93;;;6.38;55.48
78615;BME280;67937;52.488;20.952;2023-05-10T02:49:32;101250.05;;;6.32;55.73
78615;BME280;67937;52.488;20.952;2023-05-10T02:52:04;101252.80;;;6.30;55.72
78615;BME280;67937;52.488;20.952;2023-05-10T02:54:43;101251.44;;;6.29;55.66
78615;BME280;67937;52.488;20.952;2023-05-10T02:57:16;101247.31;;;6.24;55.94
78615;BME280;67937;52.488;20.952;2023-05-10T02:59:45;101251.95;;;6.22;56.05
78615;BME280;67937;52.488;20.952;2023-05-10T03:02:13;101250.90;;;6.18;56.02
78615;BME280;67937;52.488;20.952;2023-05-10T03:04:42;101252.59;;;6.16;56.14
78615;BME280;67937;52.488;20.952;2023-05-10T03:07:10;101255.83;;;6.14;56.28
78615;BME280;67937;52.488;20.952;2023-05-10T03:09:38;101254.84;;;6.13;56.27
78615;BME280;67937;52.488;20.952;2023-05-10T03:12:15;101256.17;;;6.10;56.53
78615;BME280;67937;52.488;20.952;2023-05-10T03:15:09;101257.65;;;6.12;56.18
78615;BME280;67937;52.488;20.952;2023-05-10T03:20:24;101254.64;;;6.13;56.19
78615;BME280;67937;52.488;20.952;2023-05-10T03:22:59;101251.54;;;6.12;56.41
78615;BME280;67937;52.488;20.952;2023-05-10T03:25:29;101250.52;;;6.11;56.21
78615;BME280;67937;52.488;20.952;2023-05-10T03:28:01;101249.67;;;6.14;56.25
78615;BME280;67937;52.488;20.952;2023-05-10T03:30:29;101241.67;;;6.13;56.46
78615;BME280;67937;52.488;20.952;2023-05-10T03:33:04;101245.59;;;6.19;56.43
78615;BME280;67937;52.488;20.952;2023-05-10T03:35:32;101243.61;;;6.21;56.38
78615;BME280;67937;52.488;20.952;2023-05-10T03:38:01;101243.67;;;6.23;56.48
78615;BME280;67937;52.488;20.952;2023-05-10T03:40:29;101245.98;;;6.26;56.59
78615;BME280;67937;52.488;20.952;2023-05-10T03:42:59;101248.27;;;6.29;56.65
78615;BME280;67937;52.488;20.952;2023-05-10T03:45:27;101247.02;;;6.33;56.60
78615;BME280;67937;52.488;20.952;2023-05-10T03:47:55;101248.45;;;6.37;56.59
78615;BME280;67937;52.488;20.952;2023-05-10T03:50:23;101248.06;;;6.41;56.34
78615;BME280;67937;52.488;20.952;2023-05-10T03:52:51;101245.92;;;6.46;56.41
78615;BME280;67937;52.488;20.952;2023-05-10T03:55:19;101246.55;;;6.50;56.57
78615;BME280;67937;52.488;20.952;2023-05-10T03:57:49;101248.36;;;6.56;56.34
78615;BME280;67937;52.488;20.952;2023-05-10T04:00:17;101245.46;;;6.62;56.30
78615;BME280;67937;52.488;20.952;2023-05-10T04:02:45;101244.21;;;6.66;56.21
78615;BME280;67937;52.488;20.952;2023-05-10T04:05:13;101243.02;;;6.73;56.03
78615;BME280;67937;52.488;20.952;2023-05-10T04:07:41;101246.89;;;6.76;55.96
78615;BME280;67937;52.488;20.952;2023-05-10T04:10:11;101249.20;;;6.83;55.90
78615;BME280;67937;52.488;20.952;2023-05-10T04:12:39;101245.20;;;6.85;56.04
78615;BME280;67937;52.488;20.952;2023-05-10T04:15:08;101249.05;;;6.92;55.91
78615;BME280;67937;52.488;20.952;2023-05-10T04:17:36;101249.10;;;6.98;55.83
78615;BME280;67937;52.488;20.952;2023-05-10T04:20:04;101249.79;;;7.02;55.76
78615;BME280;67937;52.488;20.952;2023-05-10T04:22:33;101250.47;;;7.09;55.71
78615;BME280;67937;52.488;20.952;2023-05-10T04:25:01;101254.64;;;7.17;55.64
78615;BME280;67937;52.488;20.952;2023-05-10T04:27:29;101259.38;;;7.24;55.22
78615;BME280;67937;52.488;20.952;2023-05-10T04:29:57;101256.77;;;7.27;55.35
78615;BME280;67937;52.488;20.952;2023-05-10T04:32:25;101255.77;;;7.33;55.17
78615;BME280;67937;52.488;20.952;2023-05-10T04:34:54;101257.05;;;7.38;55.18
78615;BME280;67937;52.488;20.952;2023-05-10T04:37:22;101261.52;;;7.44;55.09
78615;BME280;67937;52.488;20.952;2023-05-10T04:39:50;101255.48;;;7.52;55.15
78615;BME280;67937;52.488;20.952;2023-05-10T04:42:18;101261.64;;;7.61;54.88
78615;BME280;67937;52.488;20.952;2023-05-10T04:44:46;101254.30;;;7.64;54.96
78615;BME280;67937;52.488;20.952;2023-05-10T04:47:14;101254.50;;;7.73;54.84
78615;BME280;67937;52.488;20.952;2023-05-10T04:49:42;101256.39;;;7.85;54.82
78615;BME280;67937;52.488;20.952;2023-05-10T04:52:10;101257.56;;;7.92;54.35
78615;BME280;67937;52.488;20.952;2023-05-10T04:54:39;101255.03;;;8.00;54.49
78615;BME280;67937;52.488;20.952;2023-05-10T04:57:07;101255.58;;;8.12;54.30
78615;BME280;67937;52.488;20.952;2023-05-10T04:59:38;101255.02;;;8.22;54.26
78615;BME280;67937;52.488;20.952;2023-05-10T05:02:06;101253.09;;;8.35;54.09
78615;BME280;67937;52.488;20.952;2023-05-10T05:04:34;101256.63;;;8.47;53.81
78615;BME280;67937;52.488;20.952;2023-05-10T05:07:02;101251.43;;;8.56;53.79
78615;BME280;67937;52.488;20.952;2023-05-10T05:09:30;101254.42;;;8.71;53.79
78615;BME280;67937;52.488;20.952;2023-05-10T05:11:59;101250.60;;;8.88;53.48
78615;BME280;67937;52.488;20.952;2023-05-10T05:14:27;101246.36;;;9.04;53.23
78615;BME280;67937;52.488;20.952;2023-05-10T05:16:55;101248.55;;;9.08;53.23
78615;BME280;67937;52.488;20.952;2023-05-10T05:19:23;101245.88;;;9.23;52.93
78615;BME280;67937;52.488;20.952;2023-05-10T05:21:51;101248.78;;;9.36;52.78
78615;BME280;67937;52.488;20.952;2023-05-10T05:24:20;101248.95;;;9.49;52.41
78615;BME280;67937;52.488;20.952;2023-05-10T05:26:48;101248.11;;;9.62;52.26
78615;BME280;67937;52.488;20.952;2023-05-10T05:29:16;101252.04;;;9.69;52.08
78615;BME280;67937;52.488;20.952;2023-05-10T05:31:44;101255.20;;;9.84;52.16
78615;BME280;67937;52.488;20.952;2023-05-10T05:34:12;101254.52;;;9.95;51.91
78615;BME280;67937;52.488;20.952;2023-05-10T05:36:40;101255.27;;;10.11;51.45
78615;BME280;67937;52.488;20.952;2023-05-10T05:39:08;101256.52;;;10.22;51.19
78615;BME280;67937;52.488;20.952;2023-05-10T05:41:36;101258.31;;;10.36;51.52
78615;BME280;67937;52.488;20.952;2023-05-10T05:44:04;101260.50;;;10.49;51.62
78615;BME280;67937;52.488;20.952;2023-05-10T05:46:32;101256.48;;;10.70;51.10
78615;BME280;67937;52.488;20.952;2023-05-10T05:49:00;101256.29;;;10.80;50.96
78615;BME280;67937;52.488;20.952;2023-05-10T05:51:29;101249.73;;;10.97;50.19
78615;BME280;67937;52.488;20.952;2023-05-10T05:53:57;101247.39;;;11.08;50.46
78615;BME280;67937;52.488;20.952;2023-05-10T05:56:25;101248.70;;;11.25;50.70
78615;BME280;67937;52.488;20.952;2023-05-10T05:58:53;101248.17;;;11.45;50.60
78615;BME280;67937;52.488;20.952;2023-05-10T06:01:21;101245.98;;;11.67;50.62
78615;BME280;67937;52.488;20.952;2023-05-10T06:03:49;101246.68;;;11.82;49.83
78615;BME280;67937;52.488;20.952;2023-05-10T06:06:17;101242.95;;;11.98;49.39
78615;BME280;67937;52.488;20.952;2023-05-10T06:08:45;101245.83;;;12.17;49.20
78615;BME280;67937;52.488;20.952;2023-05-10T06:11:13;101244.60;;;12.33;48.53
78615;BME280;67937;52.488;20.952;2023-05-10T06:13:42;101239.59;;;12.41;48.43
78615;BME280;67937;52.488;20.952;2023-05-10T06:16:10;101244.13;;;12.47;48.75
78615;BME280;67937;52.488;20.952;2023-05-10T06:18:38;101243.55;;;12.69;48.43
78615;BME280;67937;52.488;20.952;2023-05-10T06:21:06;101243.94;;;12.93;47.43
78615;BME280;67937;52.488;20.952;2023-05-10T06:23:34;101241.75;;;12.98;46.74
78615;BME280;67937;52.488;20.952;2023-05-10T06:26:02;101242.55;;;13.11;46.34
78615;BME280;67937;52.488;20.952;2023-05-10T06:28:30;101245.82;;;13.24;46.56
78615;BME280;67937;52.488;20.952;2023-05-10T06:31:00;101241.86;;;13.41;46.39
78615;BME280;67937;52.488;20.952;2023-05-10T06:33:28;101242.92;;;13.55;45.86
78615;BME280;67937;52.488;20.952;2023-05-10T06:35:56;101234.91;;;13.71;45.29
78615;BME280;67937;52.488;20.952;2023-05-10T06:38:24;101239.92;;;13.81;45.38
78615;BME280;67937;52.488;20.952;2023-05-10T06:40:52;101237.30;;;13.97;45.56
78615;BME280;67937;52.488;20.952;2023-05-10T06:43:21;101234.59;;;14.13;45.07
78615;BME280;67937;52.488;20.952;2023-05-10T06:45:49;101238.52;;;14.33;44.39
78615;BME280;67937;52.488;20.952;2023-05-10T06:48:17;101234.93;;;14.44;44.41
78615;BME280;67937;52.488;20.952;2023-05-10T06:50:45;101234.92;;;14.59;44.22
78615;BME280;67937;52.488;20.952;2023-05-10T06:53:13;101234.56;;;14.78;44.78
78615;BME280;67937;52.488;20.952;2023-05-10T06:55:42;101235.90;;;14.98;43.60
78615;BME280;67937;52.488;20.952;2023-05-10T06:58:10;101235.29;;;15.08;42.84
78615;BME280;67937;52.488;20.952;2023-05-10T07:00:39;101240.33;;;15.24;42.81
78615;BME280;67937;52.488;20.952;2023-05-10T07:03:09;101232.61;;;15.44;40.71
78615;BME280;67937;52.488;20.952;2023-05-10T07:05:38;101233.92;;;15.54;40.38
78615;BME280;67937;52.488;20.952;2023-05-10T07:08:06;101233.46;;;15.65;40.53
78615;BME280;67937;52.488;20.952;2023-05-10T07:10:34;101232.08;;;15.79;40.34
78615;BME280;67937;52.488;20.952;2023-05-10T07:13:02;101231.51;;;15.89;40.85
78615;BME280;67937;52.488;20.952;2023-05-10T07:15:30;101228.44;;;16.06;39.84
78615;BME280;67937;52.488;20.952;2023-05-10T07:17:58;101222.37;;;16.12;39.48
78615;BME280;67937;52.488;20.952;2023-05-10T07:20:26;101232.03;;;16.25;38.13
78615;BME280;67937;52.488;20.952;2023-05-10T07:22:54;101230.61;;;16.21;37.31
78615;BME280;67937;52.488;20.952;2023-05-10T07:25:22;101226.35;;;16.19;37.96
78615;BME280;67937;52.488;20.952;2023-05-10T07:27:50;101227.44;;;16.31;38.52
78615;BME280;67937;52.488;20.952;2023-05-10T07:30:19;101227.52;;;16.39;37.69
78615;BME280;67937;52.488;20.952;2023-05-10T07:32:47;101227.61;;;16.46;37.62
78615;BME280;67937;52.488;20.952;2023-05-10T07:35:15;101222.61;;;16.61;36.95
78615;BME280;67937;52.488;20.952;2023-05-10T07:37:43;101224.90;;;16.67;35.80
78615;BME280;67937;52.488;20.952;2023-05-10T07:40:11;101221.86;;;16.67;35.50
78615;BME280;67937;52.488;20.952;2023-05-10T07:42:39;101220.81;;;16.70;34.65
78615;BME280;67937;52.488;20.952;2023-05-10T07:45:08;101224.24;;;16.84;35.58
78615;BME280;67937;52.488;20.952;2023-05-10T07:47:36;101219.99;;;16.89;35.41
78615;BME280;67937;52.488;20.952;2023-05-10T07:50:05;101213.83;;;16.96;34.71
78615;BME280;67937;52.488;20.952;2023-05-10T07:52:33;101216.87;;;17.05;34.15
78615;BME280;67937;52.488;20.952;2023-05-10T07:55:01;101219.08;;;17.05;34.53
78615;BME280;67937;52.488;20.952;2023-05-10T07:57:30;101219.80;;;17.20;33.91
78615;BME280;67937;52.488;20.952;2023-05-10T07:59:58;101218.30;;;17.19;33.57
78615;BME280;67937;52.488;20.952;2023-05-10T08:02:26;101217.06;;;17.16;33.92
78615;BME280;67937;52.488;20.952;2023-05-10T08:04:54;101214.05;;;17.12;35.18
78615;BME280;67937;52.488;20.952;2023-05-10T08:07:24;101215.84;;;17.37;34.05
78615;BME280;67937;52.488;20.952;2023-05-10T08:09:52;101209.79;;;17.41;33.78
78615;BME280;67937;52.488;20.952;2023-05-10T08:12:20;101214.41;;;17.51;33.78
78615;BME280;67937;52.488;20.952;2023-05-10T08:14:48;101214.86;;;17.55;33.86
78615;BME280;67937;52.488;20.952;2023-05-10T08:17:16;101213.23;;;17.55;33.58
78615;BME280;67937;52.488;20.952;2023-05-10T08:19:44;101210.33;;;17.65;32.64
78615;BME280;67937;52.488;20.952;2023-05-10T08:22:12;101201.84;;;17.73;32.81
78615;BME280;67937;52.488;20.952;2023-05-10T08:24:41;101203.36;;;17.76;33.15
78615;BME280;67937;52.488;20.952;2023-05-10T08:27:09;101207.13;;;17.81;33.53
78615;BME280;67937;52.488;20.952;2023-05-10T08:29:37;101209.06;;;17.84;33.61
78615;BME280;67937;52.488;20.952;2023-05-10T08:32:06;101208.30;;;17.92;33.22
78615;BME280;67937;52.488;20.952;2023-05-10T08:34:34;101201.23;;;17.87;32.87
78615;BME280;67937;52.488;20.952;2023-05-10T08:37:02;101203.98;;;17.92;32.94
78615;BME280;67937;52.488;20.952;2023-05-10T08:39:34;101205.90;;;17.95;32.42
78615;BME280;67937;52.488;20.952;2023-05-10T08:42:04;101207.52;;;17.96;32.50
78615;BME280;67937;52.488;20.952;2023-05-10T08:44:34;101203.14;;;17.97;32.62
78615;BME280;67937;52.488;20.952;2023-05-10T08:47:05;101198.52;;;17.99;33.70
78615;BME280;67937;52.488;20.952;2023-05-10T08:49:34;101202.23;;;18.12;33.48
78615;BME280;67937;52.488;20.952;2023-05-10T08:52:03;101204.61;;;18.12;32.92
78615;BME280;67937;52.488;20.952;2023-05-10T08:54:32;101201.27;;;18.22;33.09
78615;BME280;67937;52.488;20.952;2023-05-10T08:57:01;101200.96;;;18.38;31.88
78615;BME280;67937;52.488;20.952;2023-05-10T08:59:29;101199.71;;;18.38;32.32
78615;BME280;67937;52.488;20.952;2023-05-10T09:01:58;101197.84;;;18.46;32.14
78615;BME280;67937;52.488;20.952;2023-05-10T09:04:27;101196.82;;;18.31;32.70
78615;BME280;67937;52.488;20.952;2023-05-10T09:06:55;101202.95;;;18.27;33.42
78615;BME280;67937;52.488;20.952;2023-05-10T09:09:25;101192.53;;;18.34;32.38
78615;BME280;67937;52.488;20.952;2023-05-10T09:11:54;101185.20;;;18.36;31.86
78615;BME280;67937;52.488;20.952;2023-05-10T09:14:23;101179.63;;;18.22;32.38
78615;BME280;67937;52.488;20.952;2023-05-10T09:16:51;101183.78;;;18.16;33.23
78615;BME280;67937;52.488;20.952;2023-05-10T09:19:20;101188.09;;;18.19;32.64
78615;BME280;67937;52.488;20.952;2023-05-10T09:21:48;101180.44;;;18.26;32.46
78615;BME280;67937;52.488;20.952;2023-05-10T09:24:16;101185.35;;;18.31;32.13
78615;BME280;67937;52.488;20.952;2023-05-10T09:26:48;101176.64;;;18.36;31.94
78615;BME280;67937;52.488;20.952;2023-05-10T09:29:16;101177.52;;;18.34;32.49
78615;BME280;67937;52.488;20.952;2023-05-10T09:31:51;101179.03;;;18.33;32.70
78615;BME280;67937;52.488;20.952;2023-05-10T09:34:29;101175.61;;;18.41;31.80
78615;BME280;67937;52.488;20.952;2023-05-10T09:36:59;101181.13;;;18.40;32.75
78615;BME280;67937;52.488;20.952;2023-05-10T09:39:35;101181.61;;;18.26;32.18
78615;BME280;67937;52.488;20.952;2023-05-10T09:42:08;101175.38;;;18.20;32.69
78615;BME280;67937;52.488;20.952;2023-05-10T09:44:36;101177.14;;;18.42;32.37
78615;BME280;67937;52.488;20.952;2023-05-10T09:47:04;101177.31;;;18.28;31.59
78615;BME280;67937;52.488;20.952;2023-05-10T09:49:32;101177.16;;;18.29;32.69
78615;BME280;67937;52.488;20.952;2023-05-10T09:52:02;101180.90;;;18.42;32.51
78615;BME280;67937;52.488;20.952;2023-05-10T09:54:31;101180.66;;;18.39;32.80
78615;BME280;67937;52.488;20.952;2023-05-10T09:57:00;101184.17;;;18.25;32.72
78615;BME280;67937;52.488;20.952;2023-05-10T09:59:29;101176.17;;;18.30;32.87
78615;BME280;67937;52.488;20.952;2023-05-10T10:01:59;101169.34;;;18.28;32.48
78615;BME280;67937;52.488;20.952;2023-05-10T10:04:27;101171.02;;;18.40;33.13
78615;BME280;67937;52.488;20.952;2023-05-10T10:07:03;101166.08;;;18.38;33.16
78615;BME280;67937;52.488;20.952;2023-05-10T10:09:33;101167.02;;;18.45;32.94
78615;BME280;67937;52.488;20.952;2023-05-10T10:12:02;101163.80;;;18.41;32.90
78615;BME280;67937;52.488;20.952;2023-05-10T10:14:31;101157.73;;;18.48;32.30
78615;BME280;67937;52.488;20.952;2023-05-10T10:17:00;101162.02;;;18.41;32.76
78615;BME280;67937;52.488;20.952;2023-05-10T10:19:29;101159.60;;;18.35;33.15
78615;BME280;67937;52.488;20.952;2023-05-10T10:21:58;101157.14;;;18.42;32.50
78615;BME280;67937;52.488;20.952;2023-05-10T10:24:26;101149.78;;;18.28;33.04
78615;BME280;67937;52.488;20.952;2023-05-10T10:26:59;101152.45;;;18.46;33.26
78615;BME280;67937;52.488;20.952;2023-05-10T10:32:30;101139.23;;;18.53;33.46
78615;BME280;67937;52.488;20.952;2023-05-10T10:35:01;101136.21;;;18.63;32.46
78615;BME280;67937;52.488;20.952;2023-05-10T10:37:46;101133.07;;;18.64;31.70
78615;BME280;67937;52.488;20.952;2023-05-10T10:40:31;101134.84;;;18.50;32.44
78615;BME280;67937;52.488;20.952;2023-05-10T10:43:27;101127.34;;;18.68;32.21
78615;BME280;67937;52.488;20.952;2023-05-10T10:46:15;101134.67;;;18.64;33.26
78615;BME280;67937;52.488;20.952;2023-05-10T10:48:51;101135.34;;;18.66;33.20
78615;BME280;67937;52.488;20.952;2023-05-10T10:51:39;101128.52;;;18.65;32.32
78615;BME280;67937;52.488;20.952;2023-05-10T10:54:10;101124.66;;;18.68;33.29
78615;BME280;67937;52.488;20.952;2023-05-10T10:56:39;101117.52;;;18.95;32.43
78615;BME280;67937;52.488;20.952;2023-05-10T10:59:07;101116.77;;;18.99;32.40
78615;BME280;67937;52.488;20.952;2023-05-10T11:01:35;101113.47;;;19.05;32.89
78615;BME280;67937;52.488;20.952;2023-05-10T11:06:35;101111.59;;;19.22;33.28
78615;BME280;67937;52.488;20.952;2023-05-10T11:09:11;101106.84;;;19.28;32.63
78615;BME280;67937;52.488;20.952;2023-05-10T11:11:51;101112.18;;;19.25;32.29
78615;BME280;67937;52.488;20.952;2023-05-10T11:14:21;101115.29;;;19.14;32.10
78615;BME280;67937;52.488;20.952;2023-05-10T11:16:50;101108.21;;;19.16;32.11
78615;BME280;67937;52.488;20.952;2023-05-10T11:19:18;101106.42;;;19.13;32.33
78615;BME280;67937;52.488;20.952;2023-05-10T11:22:13;101099.11;;;19.11;32.46
78615;BME280;67937;52.488;20.952;2023-05-10T11:24:56;101095.95;;;19.16;32.01
78615;BME280;67937;52.488;20.952;2023-05-10T11:27:24;101096.55;;;19.25;31.96
78615;BME280;67937;52.488;20.952;2023-05-10T11:29:52;101099.23;;;19.24;32.09
78615;BME280;67937;52.488;20.952;2023-05-10T11:32:21;101099.73;;;19.20;32.25
78615;BME280;67937;52.488;20.952;2023-05-10T11:34:49;101096.91;;;19.27;32.08
78615;BME280;67937;52.488;20.952;2023-05-10T11:37:18;101099.00;;;19.26;32.47
78615;BME280;67937;52.488;20.952;2023-05-10T11:39:46;101094.30;;;19.40;32.79
78615;BME280;67937;52.488;20.952;2023-05-10T11:42:14;101082.45;;;19.35;32.45
78615;BME280;67937;52.488;20.952;2023-05-10T11:44:45;101087.44;;;19.38;32.81
78615;BME280;67937;52.488;20.952;2023-05-10T11:47:14;101089.77;;;19.41;32.56
78615;BME280;67937;52.488;20.952;2023-05-10T11:49:48;101091.65;;;19.41;32.70
78615;BME280;67937;52.488;20.952;2023-05-10T11:52:18;101085.64;;;19.44;32.44
78615;BME280;67937;52.488;20.952;2023-05-10T11:54:55;101084.90;;;19.42;32.76
78615;BME280;67937;52.488;20.952;2023-05-10T11:57:26;101087.64;;;19.44;32.62
78615;BME280;67937;52.488;20.952;2023-05-10T11:59:56;101083.05;;;19.52;34.20
78615;BME280;67937;52.488;20.952;2023-05-10T12:02:25;101083.98;;;19.61;33.25
78615;BME280;67937;52.488;20.952;2023-05-10T12:04:54;101075.39;;;19.66;31.55
78615;BME280;67937;52.488;20.952;2023-05-10T12:07:23;101072.91;;;19.74;31.55
78615;BME280;67937;52.488;20.952;2023-05-10T12:12:43;101079.45;;;19.65;31.72
78615;BME280;67937;52.488;20.952;2023-05-10T12:15:17;101081.84;;;19.65;32.50
78615;BME280;67937;52.488;20.952;2023-05-10T12:17:46;101077.29;;;19.70;33.13
78615;BME280;67937;52.488;20.952;2023-05-10T12:20:21;101076.85;;;19.81;32.33
78615;BME280;67937;52.488;20.952;2023-05-10T12:22:55;101067.83;;;19.68;32.32
78615;BME280;67937;52.488;20.952;2023-05-10T12:25:30;101068.58;;;19.73;31.90
78615;BME280;67937;52.488;20.952;2023-05-10T12:28:02;101070.84;;;19.69;31.58
78615;BME280;67937;52.488;20.952;2023-05-10T12:30:32;101077.17;;;19.66;31.40
78615;BME280;67937;52.488;20.952;2023-05-10T12:33:02;101077.05;;;19.56;31.42
78615;BME280;67937;52.488;20.952;2023-05-10T12:35:31;101076.35;;;19.56;32.08
78615;BME280;67937;52.488;20.952;2023-05-10T12:38:00;101076.76;;;19.55;31.54
78615;BME280;67937;52.488;20.952;2023-05-10T12:40:28;101068.55;;;19.60;31.65
78615;BME280;67937;52.488;20.952;2023-05-10T12:42:56;101073.06;;;19.68;31.87
78615;BME280;67937;52.488;20.952;2023-05-10T12:45:24;101071.66;;;19.73;31.90
78615;BME280;67937;52.488;20.952;2023-05-10T12:47:52;101065.81;;;19.69;31.80
78615;BME280;67937;52.488;20.952;2023-05-10T12:50:20;101061.48;;;19.71;31.92
78615;BME280;67937;52.488;20.952;2023-05-10T12:52:48;101065.20;;;19.75;31.20
78615;BME280;67937;52.488;20.952;2023-05-10T12:55:16;101062.06;;;19.72;31.43
78615;BME280;67937;52.488;20.952;2023-05-10T12:57:44;101058.34;;;19.88;32.21
78615;BME280;67937;52.488;20.952;2023-05-10T13:00:13;101055.91;;;19.99;31.62
78615;BME280;67937;52.488;20.952;2023-05-10T13:02:41;101056.65;;;19.99;32.09
78615;BME280;67937;52.488;20.952;2023-05-10T13:05:09;101059.14;;;20.01;31.56
78615;BME280;67937;52.488;20.952;2023-05-10T13:07:39;101056.73;;;19.95;31.46
78615;BME280;67937;52.488;20.952;2023-05-10T13:10:07;101053.00;;;19.80;31.53
78615;BME280;67937;52.488;20.952;2023-05-10T13:12:35;101049.66;;;19.87;30.74
78615;BME280;67937;52.488;20.952;2023-05-10T13:15:04;101048.23;;;19.74;31.50
78615;BME280;67937;52.488;20.952;2023-05-10T13:17:33;101045.32;;;19.74;31.69
78615;BME280;67937;52.488;20.952;2023-05-10T13:20:01;101043.91;;;19.78;32.23
78615;BME280;67937;52.488;20.952;2023-05-10T13:22:29;101039.23;;;19.91;31.04
78615;BME280;67937;52.488;20.952;2023-05-10T13:24:58;101044.48;;;19.87;30.43
78615;BME280;67937;52.488;20.952;2023-05-10T13:27:26;101043.66;;;19.73;30.19